Time;durP1;ratioP1;P1;durP2;ratioP2;P2;SDS_P1;SDS_P2;PMS_P1;PMS_P2;Temp;Humidity;BMP_temperature;BMP_pressure;BME280_temperature;BME280_humidity;BME280_pressure;Samples;Min_cycle;Max_cycle;Signal;HPM_P1;HPM_P2
2022/11/21 00:00:40;;;;;;;18.02;3.60;;;7.80;99.90;;;;;;5075460;28;20039;-77
2022/11/21 00:03:06;;;;;;;19.38;4.07;;;7.90;99.90;;;;;;5074083;28;20089;-77
2022/11/21 00:05:32;;;;;;;17.35;3.03;;;8.00;99.90;;;;;;5073977;28;20029;-76
2022/11/21 00:07:58;;;;;;;16.77;3.85;;;8.10;99.90;;;;;;5075563;28;20082;-77
2022/11/21 00:10:25;;;;;;;14.13;4.47;;;8.10;99.90;;;;;;5075095;28;20419;-77
2022/11/21 00:12:55;;;;;;;16.08;4.78;;;8.10;99.90;;;;;;5074133;28;20028;-77
2022/11/21 00:15:22;;;;;;;17.73;4.72;;;8.10;99.90;;;;;;5075216;28;20024;-77
2022/11/21 00:17:47;;;;;;;24.33;4.88;;;8.20;99.90;;;;;;5075009;28;20059;-76
2022/11/21 00:20:14;;;;;;;24.25;6.00;;;8.10;99.90;;;;;;5075080;28;20025;-77
2022/11/21 00:22:39;;;;;;;17.75;4.80;;;8.10;99.90;;;;;;5073916;28;20020;-77
2022/11/21 00:25:06;;;;;;;19.80;6.07;;;7.90;99.90;;;;;;5075053;28;20374;-77
2022/11/21 00:27:32;;;;;;;14.65;4.18;;;7.80;99.90;;;;;;5074936;28;20024;-77
2022/11/21 00:29:58;;;;;;;16.75;4.88;;;7.90;99.90;;;;;;5075043;28;20032;-78
2022/11/21 00:32:23;;;;;;;19.65;5.30;;;8.00;99.90;;;;;;5075094;28;20078;-77
2022/11/21 00:34:49;;;;;;;22.52;4.63;;;7.70;99.90;;;;;;5074591;28;20040;-77
2022/11/21 00:37:15;;;;;;;18.40;4.13;;;7.80;99.90;;;;;;5074636;28;20035;-77
2022/11/21 00:39:41;;;;;;;20.55;4.95;;;7.70;99.90;;;;;;5074802;28;20439;-77
2022/11/21 00:42:06;;;;;;;19.50;5.72;;;7.80;99.90;;;;;;5056765;28;20012;-77
2022/11/21 00:44:32;;;;;;;21.48;5.28;;;7.80;99.90;;;;;;5074841;28;20089;-77
2022/11/21 00:46:58;;;;;;;17.38;4.15;;;7.70;99.90;;;;;;5074643;28;20048;-77
2022/11/21 00:49:24;;;;;;;13.05;4.50;;;7.50;99.90;;;;;;5074394;28;20111;-77
2022/11/21 00:51:49;;;;;;;16.23;3.80;;;7.60;99.90;;;;;;5074587;28;20027;-77
2022/11/21 00:54:15;;;;;;;14.90;4.30;;;7.50;99.90;;;;;;5074367;28;20067;-77
2022/11/21 00:56:41;;;;;;;20.38;4.88;;;7.50;99.90;;;;;;5074661;28;20043;-77
2022/11/21 00:59:06;;;;;;;11.82;3.78;;;7.60;99.90;;;;;;5069374;28;20036;-77
2022/11/21 01:01:32;;;;;;;14.88;4.63;;;7.60;99.90;;;;;;5074491;28;20052;-77
2022/11/21 01:03:58;;;;;;;10.68;3.45;;;7.60;99.90;;;;;;5073738;28;20432;-77
2022/11/21 01:06:24;;;;;;;15.60;4.25;;;7.70;99.90;;;;;;5074442;28;20517;-77
2022/11/21 01:08:50;;;;;;;19.88;4.50;;;7.70;99.90;;;;;;5072839;28;20033;-77
2022/11/21 01:11:18;;;;;;;12.85;4.47;;;7.70;99.90;;;;;;5067031;28;20029;-77
2022/11/21 01:13:44;;;;;;;18.17;6.43;;;7.50;99.90;;;;;;5060910;28;20031;-77
2022/11/21 01:16:13;;;;;;;18.45;6.63;;;7.70;99.90;;;;;;5073995;28;20069;-77
2022/11/21 01:18:39;;;;;;;19.05;6.88;;;7.80;99.90;;;;;;5073572;28;20037;-77
2022/11/21 01:21:11;;;;;;;21.95;6.80;;;7.70;99.90;;;;;;5073782;28;20024;-77
2022/11/21 01:23:37;;;;;;;14.10;5.40;;;7.80;99.90;;;;;;5074340;28;20439;-77
2022/11/21 01:26:05;;;;;;;16.13;5.70;;;7.60;99.90;;;;;;5073799;28;20483;-77
2022/11/21 01:28:31;;;;;;;12.38;4.70;;;7.50;99.90;;;;;;5073966;28;20052;-77
2022/11/21 01:31:09;;;;;;;18.35;5.63;;;7.50;99.90;;;;;;5072259;28;20396;-77
2022/11/21 01:33:36;;;;;;;16.35;4.68;;;7.60;99.90;;;;;;5072640;28;20090;-77
2022/11/21 01:36:06;;;;;;;16.00;4.85;;;7.60;99.90;;;;;;5073424;28;20032;-77
2022/11/21 01:38:33;;;;;;;12.63;3.53;;;7.60;99.90;;;;;;5072511;28;20089;-77
2022/11/21 01:40:58;;;;;;;13.13;3.15;;;7.60;99.90;;;;;;5073564;28;20021;-77
2022/11/21 01:43:24;;;;;;;6.93;2.80;;;7.60;99.90;;;;;;5073186;28;20362;-77
2022/11/21 01:46:02;;;;;;;6.13;2.35;;;7.70;99.90;;;;;;5072123;28;20090;-77
2022/11/21 01:49:06;;;;;;;8.88;2.60;;;7.60;99.90;;;;;;5073118;28;20481;-77
2022/11/21 01:51:39;;;;;;;7.13;2.60;;;7.50;99.90;;;;;;5073166;28;20439;-77
2022/11/21 01:54:19;;;;;;;11.18;2.70;;;7.60;99.90;;;;;;5073142;28;20028;-77
2022/11/21 01:57:09;;;;;;;10.80;3.05;;;7.70;99.90;;;;;;5071837;28;20040;-77
2022/11/21 02:00:01;;;;;;;10.80;3.55;;;7.70;99.90;;;;;;5073373;28;20028;-77
2022/11/21 02:02:32;;;;;;;10.35;3.33;;;7.80;99.90;;;;;;5073009;28;20028;-77
2022/11/21 02:05:00;;;;;;;7.40;2.83;;;7.80;99.90;;;;;;5072906;28;20044;-77
2022/11/21 02:07:29;;;;;;;13.32;3.50;;;7.60;99.90;;;;;;5073504;28;20028;-77
2022/11/21 02:09:59;;;;;;;14.57;4.30;;;7.60;99.90;;;;;;5073411;28;20040;-77
2022/11/21 02:12:42;;;;;;;16.88;4.82;;;7.60;99.90;;;;;;5073151;28;20020;-77
2022/11/21 02:15:08;;;;;;;21.83;6.28;;;7.60;99.90;;;;;;5071436;28;20029;-77
2022/11/21 02:17:34;;;;;;;13.02;6.32;;;7.50;99.90;;;;;;5072679;28;20016;-77
2022/11/21 02:20:02;;;;;;;12.10;4.95;;;7.60;99.90;;;;;;5072935;28;20485;-77
2022/11/21 02:22:37;;;;;;;20.70;5.88;;;7.70;99.90;;;;;;5073022;28;20029;-78
2022/11/21 02:25:11;;;;;;;20.38;6.38;;;7.60;99.90;;;;;;5072824;28;20033;-77
2022/11/21 02:27:37;;;;;;;18.65;5.97;;;7.60;99.90;;;;;;5072734;28;20044;-77
2022/11/21 02:30:06;;;;;;;17.52;5.72;;;7.50;99.90;;;;;;5071844;28;20024;-77
2022/11/21 02:32:41;;;;;;;15.90;4.97;;;7.60;99.90;;;;;;5072838;28;20096;-77
2022/11/21 02:35:07;;;;;;;17.17;5.03;;;7.50;99.90;;;;;;5072860;28;20382;-77
2022/11/21 02:37:35;;;;;;;15.00;5.45;;;7.50;99.90;;;;;;5072632;28;20036;-77
2022/11/21 02:40:11;;;;;;;18.42;5.55;;;7.60;99.90;;;;;;5071236;28;20047;-77
2022/11/21 02:43:03;;;;;;;11.32;5.00;;;7.60;99.90;;;;;;5072706;28;20024;-77
2022/11/21 02:45:36;;;;;;;9.05;3.90;;;7.70;99.90;;;;;;5071825;28;20042;-77
2022/11/21 02:48:02;;;;;;;11.75;4.65;;;7.70;99.90;;;;;;5072748;28;20032;-77
2022/11/21 02:50:34;;;;;;;14.23;4.53;;;7.50;99.90;;;;;;5072442;28;20508;-77
2022/11/21 02:53:00;;;;;;;;;;;7.40;99.90;;;;;;5072954;28;20032;-77
2022/11/21 02:55:26;;;;;;;12.25;4.32;;;7.40;99.90;;;;;;5072467;28;19909;-77
2022/11/21 02:57:52;;;;;;;11.77;4.43;;;7.60;99.90;;;;;;5054413;28;20058;-77
2022/11/21 03:00:19;;;;;;;12.38;4.20;;;7.40;99.90;;;;;;5072459;28;20120;-77
2022/11/21 03:02:45;;;;;;;14.57;4.03;;;7.40;99.90;;;;;;5072476;28;20052;-77
2022/11/21 03:05:15;;;;;;;13.50;4.75;;;7.40;99.90;;;;;;5071306;28;20025;-77
2022/11/21 03:07:41;;;;;;;15.38;5.55;;;7.30;99.90;;;;;;5072417;28;20078;-77
2022/11/21 03:10:08;;;;;;;17.60;5.10;;;7.20;99.90;;;;;;5072566;28;20042;-77
2022/11/21 03:12:39;;;;;;;12.60;5.30;;;7.10;99.90;;;;;;5070714;28;20396;-77
2022/11/21 03:15:07;;;;;;;15.02;5.60;;;7.20;99.90;;;;;;5072851;28;20365;-77
2022/11/21 03:17:33;;;;;;;13.93;5.53;;;7.30;99.90;;;;;;5071901;28;20024;-77
2022/11/21 03:19:59;;;;;;;10.55;4.80;;;7.50;99.90;;;;;;5072349;28;20089;-77
2022/11/21 03:22:25;;;;;;;17.45;5.43;;;7.40;99.90;;;;;;5072181;28;20028;-77
2022/11/21 03:24:50;;;;;;;16.13;4.82;;;7.40;99.90;;;;;;5072445;28;20438;-77
2022/11/21 03:27:16;;;;;;;17.15;5.47;;;7.30;99.90;;;;;;5072129;28;20116;-77
2022/11/21 03:29:42;;;;;;;20.50;5.00;;;7.40;99.90;;;;;;5072245;28;20032;-77
2022/11/21 03:32:08;;;;;;;15.15;4.85;;;7.40;99.90;;;;;;5072108;28;20028;-77
2022/11/21 03:34:33;;;;;;;15.13;4.90;;;7.30;99.90;;;;;;5070806;28;20105;-77
2022/11/21 03:36:59;;;;;;;22.00;5.35;;;7.30;99.90;;;;;;5072146;28;20035;-77
2022/11/21 03:39:25;;;;;;;15.63;4.47;;;7.40;99.90;;;;;;5072113;28;20037;-77
2022/11/21 03:41:51;;;;;;;19.70;5.22;;;7.30;99.90;;;;;;5075432;28;20021;-77
2022/11/21 03:44:16;;;;;;;14.25;4.18;;;7.40;99.90;;;;;;5076140;28;20074;-77
2022/11/21 03:46:44;;;;;;;11.00;4.57;;;7.50;99.90;;;;;;5075913;28;20575;-77
2022/11/21 03:49:11;;;;;;;15.65;4.65;;;7.40;99.90;;;;;;5075896;28;20024;-77
2022/11/21 03:51:37;;;;;;;13.70;4.82;;;7.50;99.90;;;;;;5075664;28;20105;-77
2022/11/21 03:54:03;;;;;;;13.80;4.53;;;7.40;99.90;;;;;;5075573;28;20024;-77
2022/11/21 03:56:30;;;;;;;16.83;5.20;;;7.30;99.90;;;;;;5075625;28;20028;-77
2022/11/21 03:58:59;;;;;;;13.88;5.32;;;7.60;99.90;;;;;;5069343;28;20052;-77
2022/11/21 04:01:25;;;;;;;18.30;4.47;;;7.70;99.90;;;;;;5052957;28;20473;-77
2022/11/21 04:03:51;;;;;;;14.48;4.70;;;7.60;99.90;;;;;;5055158;28;20060;-77
2022/11/21 04:06:19;;;;;;;12.32;4.53;;;7.70;99.90;;;;;;5055559;28;20543;-77
2022/11/21 04:08:46;;;;;;;16.08;4.18;;;7.50;99.90;;;;;;5055411;28;20394;-77
2022/11/21 04:11:12;;;;;;;10.07;3.08;;;7.50;99.90;;;;;;5055264;28;20029;-77
2022/11/21 04:13:38;;;;;;;12.48;3.50;;;7.50;99.90;;;;;;5055278;28;20017;-77
2022/11/21 04:16:04;;;;;;;11.70;3.95;;;7.30;99.90;;;;;;5053825;28;20417;-77
2022/11/21 04:18:30;;;;;;;8.65;3.22;;;7.10;99.90;;;;;;5053783;28;20133;-77
2022/11/21 04:21:04;;;;;;;8.90;3.03;;;7.00;99.90;;;;;;5055281;28;20469;-77
2022/11/21 04:23:30;;;;;;;12.00;4.03;;;7.00;99.90;;;;;;5053774;28;20063;-77
2022/11/21 04:25:56;;;;;;;12.75;2.88;;;7.00;99.90;;;;;;5053651;28;20068;-77
2022/11/21 04:28:22;;;;;;;12.68;3.55;;;7.00;99.90;;;;;;5054904;28;20115;-77
2022/11/21 04:30:48;;;;;;;8.90;3.30;;;7.00;99.90;;;;;;5055033;28;20515;-77
2022/11/21 04:33:15;;;;;;;14.48;3.70;;;6.80;99.90;;;;;;5054818;28;20051;-78
2022/11/21 04:35:42;;;;;;;14.57;3.10;;;6.80;99.90;;;;;;5054788;28;20017;-77
2022/11/21 04:38:08;;;;;;;9.13;3.22;;;6.80;99.90;;;;;;5054635;28;20432;-77
2022/11/21 04:40:34;;;;;;;11.25;2.72;;;6.90;99.90;;;;;;5054401;28;20036;-77
2022/11/21 04:43:00;;;;;;;13.30;3.28;;;6.90;99.90;;;;;;5053723;28;20033;-77
2022/11/21 04:45:25;;;;;;;15.48;4.05;;;6.80;99.90;;;;;;5054464;28;20024;-77
2022/11/21 04:47:51;;;;;;;15.30;3.58;;;6.90;99.90;;;;;;5053493;28;20382;-77
2022/11/21 04:50:18;;;;;;;14.23;3.03;;;7.10;99.90;;;;;;5054541;28;20033;-78
2022/11/21 04:52:55;;;;;;;9.05;2.88;;;7.10;99.90;;;;;;5054030;28;20104;-77
2022/11/21 04:55:26;;;;;;;10.57;2.92;;;7.00;99.90;;;;;;5054184;28;20396;-77
2022/11/21 04:57:52;;;;;;;13.45;4.00;;;6.90;99.90;;;;;;5054484;28;20040;-77
2022/11/21 05:00:18;;;;;;;13.68;3.38;;;6.80;99.90;;;;;;5054274;28;20029;-78
2022/11/21 05:02:44;;;;;;;12.43;3.25;;;6.80;99.90;;;;;;5054321;28;20079;-78
2022/11/21 05:05:10;;;;;;;21.70;3.95;;;6.70;99.90;;;;;;5054151;28;20021;-77
2022/11/21 05:07:36;;;;;;;13.63;3.72;;;6.80;99.90;;;;;;5052827;28;20041;-77
2022/11/21 05:10:03;;;;;;;14.52;4.35;;;6.80;99.90;;;;;;5053846;28;20127;-77
2022/11/21 05:15:13;;;;;;;17.85;2.90;;;6.60;99.90;;;;;;5054152;28;20037;-77
2022/11/21 05:17:39;;;;;;;11.35;3.78;;;6.60;99.90;;;;;;5054260;28;20086;-77
2022/11/21 05:20:05;;;;;;;12.68;3.70;;;6.50;99.90;;;;;;5052784;28;20040;-77
2022/11/21 05:22:31;;;;;;;14.02;3.60;;;6.60;99.90;;;;;;5054160;28;20069;-77
2022/11/21 05:24:57;;;;;;;11.68;4.05;;;6.60;99.90;;;;;;5053454;28;20056;-77
2022/11/21 05:27:23;;;;;;;14.38;6.43;;;6.50;99.90;;;;;;5052680;28;20051;-77
2022/11/21 05:29:48;;;;;;;22.77;7.82;;;6.50;99.90;;;;;;5053323;28;20025;-77
2022/11/21 05:32:14;;;;;;;14.90;3.58;;;6.50;99.90;;;;;;5053854;28;20033;-77
2022/11/21 05:34:40;;;;;;;17.80;4.00;;;6.50;99.90;;;;;;5053720;28;20047;-76
2022/11/21 05:37:05;;;;;;;12.35;3.72;;;6.40;99.90;;;;;;5053292;28;20071;-76
2022/11/21 05:39:31;;;;;;;8.35;3.10;;;6.50;99.90;;;;;;5051501;28;20037;-77
2022/11/21 05:41:57;;;;;;;14.10;3.83;;;6.60;99.90;;;;;;5053385;28;20515;-77
2022/11/21 05:44:23;;;;;;;15.45;3.60;;;6.50;99.90;;;;;;5053295;28;20025;-76
2022/11/21 05:46:48;;;;;;;18.45;3.42;;;6.30;99.90;;;;;;5053349;28;20021;-76
2022/11/21 05:49:14;;;;;;;10.82;3.45;;;6.30;99.90;;;;;;5053444;28;20048;-77
2022/11/21 05:51:40;;;;;;;14.27;3.47;;;6.20;99.90;;;;;;5053670;28;20025;-76
2022/11/21 05:54:06;;;;;;;15.00;4.32;;;6.30;99.90;;;;;;5053164;28;20048;-76
2022/11/21 05:56:31;;;;;;;17.77;3.45;;;6.20;99.90;;;;;;5053211;28;20033;-76
2022/11/21 05:58:57;;;;;;;11.10;3.45;;;6.20;99.90;;;;;;5053205;28;20044;-76
2022/11/21 06:04:09;;;;;;;21.75;5.45;;;6.20;99.90;;;;;;5038940;28;20029;-77
2022/11/21 06:06:35;;;;;;;24.00;5.13;;;6.20;99.90;;;;;;5051478;28;20029;-76
2022/11/21 06:09:01;;;;;;;12.18;4.50;;;6.20;99.90;;;;;;5053036;28;20031;-77
2022/11/21 06:11:27;;;;;;;14.25;4.35;;;6.30;99.90;;;;;;5053276;28;20017;-76
2022/11/21 06:13:54;;;;;;;18.02;4.65;;;6.10;99.90;;;;;;5034856;28;20047;-76
2022/11/21 06:16:20;;;;;;;13.02;3.90;;;6.10;99.90;;;;;;5052703;28;20039;-76
2022/11/21 06:18:48;;;;;;;13.75;2.83;;;6.00;99.90;;;;;;5052846;28;20546;-76
2022/11/21 06:21:19;;;;;;;12.30;5.05;;;6.00;99.90;;;;;;5052543;28;20029;-76
2022/11/21 06:23:45;;;;;;;12.50;3.47;;;6.00;99.90;;;;;;5053036;28;20506;-76
2022/11/21 06:26:13;;;;;;;16.73;4.20;;;5.90;99.90;;;;;;5052821;28;20493;-76
2022/11/21 06:28:40;;;;;;;15.77;3.85;;;6.00;99.90;;;;;;5052930;28;20037;-76
2022/11/21 06:31:08;;;;;;;15.60;4.20;;;5.90;99.90;;;;;;5052328;28;20070;-76
2022/11/21 06:33:35;;;;;;;9.15;3.75;;;5.90;99.90;;;;;;5053010;28;20028;-76
2022/11/21 06:36:20;;;;;;;19.15;4.93;;;5.80;99.90;;;;;;5052203;28;20025;-77
2022/11/21 06:38:46;;;;;;;10.57;3.45;;;5.90;99.90;;;;;;5051436;28;20044;-76
2022/11/21 06:41:17;;;;;;;14.27;4.10;;;6.00;99.90;;;;;;5052671;28;20029;-76
2022/11/21 06:43:44;;;;;;;19.20;5.20;;;5.90;99.90;;;;;;5034289;28;20033;-76
2022/11/21 06:46:10;;;;;;;23.52;5.72;;;5.90;99.90;;;;;;5044715;28;20096;-76
2022/11/21 06:48:37;;;;;;;24.35;4.20;;;6.00;99.90;;;;;;5051459;28;20493;-77
2022/11/21 06:51:09;;;;;;;18.83;7.55;;;5.80;99.90;;;;;;5050900;28;20079;-77
2022/11/21 06:53:35;;;;;;;12.63;4.60;;;5.80;99.90;;;;;;5051239;28;20413;-77
2022/11/21 06:56:02;;;;;;;13.93;5.28;;;5.70;99.90;;;;;;5052377;28;20024;-77
2022/11/21 06:58:28;;;;;;;13.43;6.35;;;5.80;99.90;;;;;;5051036;28;20112;-76
2022/11/21 07:00:54;;;;;;;15.00;5.88;;;5.80;99.90;;;;;;5050616;28;20063;-77
2022/11/21 07:03:21;;;;;;;12.02;5.30;;;5.60;99.90;;;;;;5052032;28;20404;-76
2022/11/21 07:05:47;;;;;;;18.23;5.82;;;5.50;99.90;;;;;;5051437;28;20527;-76
2022/11/21 07:08:12;;;;;;;14.18;4.95;;;5.70;99.90;;;;;;5051234;28;20033;-76
2022/11/21 07:10:38;;;;;;;14.05;5.22;;;5.60;99.90;;;;;;5052201;28;20523;-77
2022/11/21 07:13:23;;;;;;;10.77;4.47;;;5.70;99.90;;;;;;5038255;28;20021;-77
2022/11/21 07:15:53;;;;;;;16.17;5.30;;;5.50;99.90;;;;;;5053165;28;20043;-76
2022/11/21 07:18:20;;;;;;;14.20;5.25;;;5.60;99.90;;;;;;5056684;28;20440;-77
2022/11/21 07:20:46;;;;;;;14.07;4.93;;;5.70;99.90;;;;;;5054679;28;20025;-76
2022/11/21 07:23:12;;;;;;;13.13;5.78;;;5.70;99.90;;;;;;5056093;28;20477;-76
2022/11/21 07:25:41;;;;;;;22.55;6.60;;;5.80;99.90;;;;;;5056389;28;20025;-76
2022/11/21 07:28:07;;;;;;;17.65;6.15;;;5.80;99.90;;;;;;5055852;28;20021;-75
2022/11/21 07:30:34;;;;;;;14.48;5.00;;;5.90;99.90;;;;;;5056417;28;20021;-76
2022/11/21 07:33:03;;;;;;;17.48;6.55;;;5.90;99.90;;;;;;5055897;28;20025;-76
2022/11/21 07:35:29;;;;;;;16.05;6.53;;;6.00;99.90;;;;;;5023917;28;20044;-76
2022/11/21 07:37:55;;;;;;;24.38;5.70;;;5.70;99.90;;;;;;5053446;28;20045;-76
2022/11/21 07:40:21;;;;;;;18.80;5.90;;;5.50;99.90;;;;;;5055894;28;20029;-76
2022/11/21 07:42:47;;;;;;;17.45;5.57;;;5.70;99.90;;;;;;5058710;28;20031;-77
2022/11/21 07:45:13;;;;;;;16.67;6.03;;;6.00;99.90;;;;;;5059360;28;20102;-76
2022/11/21 07:47:40;;;;;;;13.32;4.85;;;5.90;99.90;;;;;;5055450;28;20096;-76
2022/11/21 07:50:07;;;;;;;16.13;4.32;;;5.80;99.90;;;;;;5057930;28;20044;-75
2022/11/21 07:52:32;;;;;;;11.13;4.07;;;5.80;99.90;;;;;;5058939;28;20033;-76
2022/11/21 07:55:01;;;;;;;11.15;4.53;;;5.60;99.90;;;;;;5057785;28;20029;-76
2022/11/21 07:57:27;;;;;;;12.70;4.45;;;5.70;99.90;;;;;;5057142;28;20020;-76
2022/11/21 07:59:53;;;;;;;10.18;3.83;;;5.90;99.90;;;;;;5054964;28;20535;-76
2022/11/21 08:02:19;;;;;;;14.25;3.58;;;6.10;99.90;;;;;;5061466;28;20013;-76
2022/11/21 08:04:46;;;;;;;14.00;3.20;;;5.90;99.90;;;;;;5058738;28;20032;-76
2022/11/21 08:07:13;;;;;;;18.08;4.53;;;6.00;99.90;;;;;;5056781;28;20032;-76
2022/11/21 08:09:38;;;;;;;18.30;4.38;;;6.00;99.90;;;;;;5055840;28;20055;-76
2022/11/21 08:12:04;;;;;;;16.95;3.97;;;5.90;99.90;;;;;;5061805;28;20036;-77
2022/11/21 08:14:31;;;;;;;15.63;3.83;;;5.90;99.90;;;;;;5064795;28;20074;-76
2022/11/21 08:16:57;;;;;;;10.50;3.20;;;5.80;99.90;;;;;;5063346;28;20101;-76
2022/11/21 08:19:23;;;;;;;12.95;3.83;;;5.60;99.90;;;;;;5061092;28;20033;-76
2022/11/21 08:21:48;;;;;;;13.80;4.43;;;5.60;99.90;;;;;;5054751;28;20021;-76
2022/11/21 08:24:16;;;;;;;13.77;4.80;;;5.80;99.90;;;;;;5062353;28;20021;-76
2022/11/21 08:26:43;;;;;;;25.45;5.07;;;5.80;99.90;;;;;;5058512;28;20047;-76
2022/11/21 08:29:10;;;;;;;16.50;3.80;;;5.80;99.90;;;;;;5063773;28;20163;-76
2022/11/21 08:31:37;;;;;;;12.85;4.85;;;5.90;99.90;;;;;;5057378;28;20096;-76
2022/11/21 08:34:03;;;;;;;12.13;3.80;;;5.90;99.90;;;;;;5049984;28;20029;-76
2022/11/21 08:36:29;;;;;;;16.48;4.68;;;5.80;99.90;;;;;;5054428;28;20432;-76
2022/11/21 08:38:55;;;;;;;14.63;4.35;;;6.00;99.90;;;;;;5055144;28;20065;-76
2022/11/21 08:44:05;;;;;;;23.55;5.13;;;6.10;99.90;;;;;;5054801;28;20549;-77
2022/11/21 08:46:35;;;;;;;12.20;4.18;;;6.30;99.90;;;;;;5058799;28;20029;-77
2022/11/21 08:49:06;;;;;;;17.55;5.13;;;6.40;99.90;;;;;;5055664;28;20091;-77
2022/11/21 08:51:33;;;;;;;11.35;3.92;;;6.50;99.90;;;;;;5058825;28;20029;-77
2022/11/21 08:53:58;;;;;;;13.05;4.43;;;6.60;99.90;;;;;;5056400;28;20029;-77
2022/11/21 08:56:24;;;;;;;15.98;4.43;;;6.60;99.90;;;;;;5054241;28;20025;-76
2022/11/21 08:58:50;;;;;;;19.17;4.45;;;6.40;99.90;;;;;;5055423;28;20036;-76
2022/11/21 09:01:16;;;;;;;11.45;3.85;;;6.50;99.90;;;;;;5066419;28;20032;-76
2022/11/21 09:03:42;;;;;;;15.55;4.30;;;6.50;99.90;;;;;;5059452;28;20036;-76
2022/11/21 09:06:08;;;;;;;18.15;4.55;;;6.60;99.90;;;;;;5055555;28;20432;-76
2022/11/21 09:08:33;;;;;;;18.60;4.13;;;6.70;99.90;;;;;;5052248;28;20021;-76
2022/11/21 09:11:04;;;;;;;14.73;4.15;;;6.50;99.90;;;;;;5055834;28;20040;-76
2022/11/21 09:13:31;;;;;;;11.60;3.33;;;6.50;99.90;;;;;;5059715;28;20061;-76
2022/11/21 09:18:42;;;;;;;17.73;5.20;;;6.60;99.90;;;;;;5045648;28;20077;-76
2022/11/21 09:21:12;;;;;;;16.67;4.25;;;6.70;99.90;;;;;;5049137;28;20377;-76
2022/11/21 09:23:38;;;;;;;11.38;4.15;;;7.00;99.90;;;;;;5045110;28;20032;-76
2022/11/21 09:26:04;;;;;;;14.52;4.43;;;7.30;99.90;;;;;;5062273;28;20035;-76
2022/11/21 09:28:29;;;;;;;9.75;3.65;;;7.10;99.90;;;;;;5059667;28;20055;-76
2022/11/21 09:30:55;;;;;;;18.08;3.50;;;7.10;99.90;;;;;;5056350;28;20082;-76
2022/11/21 09:33:21;;;;;;;13.40;3.88;;;7.00;99.90;;;;;;5051229;28;20040;-76
2022/11/21 09:35:46;;;;;;;11.93;3.78;;;7.10;99.90;;;;;;5057733;28;20020;-75
2022/11/21 09:38:12;;;;;;;16.70;3.47;;;7.30;99.90;;;;;;5056728;28;20461;-76
2022/11/21 09:40:44;;;;;;;21.67;4.25;;;7.40;99.90;;;;;;5058760;28;20029;-76
2022/11/21 09:43:47;;;;;;;11.68;3.00;;;7.40;99.90;;;;;;5057177;28;20082;-77
2022/11/21 09:46:22;;;;;;;13.18;3.35;;;7.50;99.90;;;;;;5046326;28;20035;-76
2022/11/21 09:48:59;;;;;;;14.50;3.00;;;7.90;99.90;;;;;;5062037;28;20067;-77
2022/11/21 09:51:29;;;;;;;12.45;3.90;;;7.90;99.90;;;;;;5051991;28;20024;-77
2022/11/21 09:54:30;;;;;;;10.35;2.90;;;8.20;99.90;;;;;;5052260;28;20033;-76
2022/11/21 09:56:56;;;;;;;13.52;3.33;;;8.40;99.90;;;;;;5052869;28;20021;-76
2022/11/21 09:59:33;;;;;;;18.17;3.50;;;8.70;99.90;;;;;;5058783;28;20033;-75
2022/11/21 10:02:00;;;;;;;12.00;3.25;;;9.20;99.90;;;;;;5051610;28;20029;-75
2022/11/21 10:04:27;;;;;;;13.05;3.60;;;9.10;99.90;;;;;;5054256;28;20021;-75
2022/11/21 10:07:04;;;;;;;15.32;3.47;;;9.00;99.90;;;;;;5054722;28;20028;-75
2022/11/21 10:09:39;;;;;;;15.20;4.10;;;8.70;99.90;;;;;;5053691;28;20428;-75
2022/11/21 10:12:36;;;;;;;14.80;3.45;;;8.50;99.90;;;;;;5062877;28;20064;-75
2022/11/21 10:15:39;;;;;;;13.15;3.17;;;8.60;99.90;;;;;;5060482;28;20035;-75
2022/11/21 10:18:28;;;;;;;9.93;3.20;;;8.50;99.90;;;;;;5047928;28;20042;-75
2022/11/21 10:21:18;;;;;;;12.25;3.45;;;8.60;99.90;;;;;;5052482;28;20025;-75
2022/11/21 10:23:47;;;;;;;13.80;3.92;;;9.00;99.90;;;;;;5053049;28;20618;-75
2022/11/21 10:26:20;;;;;;;13.45;3.63;;;9.10;99.90;;;;;;5050094;28;20024;-75
2022/11/21 10:28:54;;;;;;;17.63;4.70;;;9.30;99.90;;;;;;5052758;28;20462;-75
2022/11/21 10:31:20;;;;;;;10.27;3.40;;;9.20;99.90;;;;;;5051274;28;20047;-75
2022/11/21 10:33:48;;;;;;;13.65;4.43;;;9.00;99.90;;;;;;5051280;28;20029;-75
2022/11/21 10:36:46;;;;;;;15.07;5.32;;;8.70;99.90;;;;;;5034459;28;20032;-75
2022/11/21 10:39:38;;;;;;;14.05;4.22;;;8.60;99.90;;;;;;5052325;28;20059;-76
2022/11/21 10:42:08;;;;;;;17.70;4.57;;;8.60;99.90;;;;;;5039011;28;20439;-75
2022/11/21 10:47:27;;;;;;;20.60;5.72;;;8.20;99.90;;;;;;5040461;28;20032;-75
2022/11/21 10:50:04;;;;;;;24.08;5.68;;;8.20;99.90;;;;;;5052197;28;20381;-75
2022/11/21 10:52:48;;;;;;;11.65;4.20;;;8.20;99.90;;;;;;5050844;28;20025;-75
2022/11/21 10:55:15;;;;;;;20.35;5.15;;;8.20;99.90;;;;;;5052186;28;20024;-76
2022/11/21 10:57:50;;;;;;;20.23;5.85;;;8.30;99.90;;;;;;5048161;28;20032;-76
2022/11/21 11:00:21;;;;;;;18.30;5.88;;;8.50;99.90;;;;;;5058411;28;20414;-76
2022/11/21 11:02:55;;;;;;;32.78;7.28;;;8.40;99.90;;;;;;5047830;28;20036;-75
2022/11/21 11:05:26;;;;;;;22.85;5.88;;;8.60;99.90;;;;;;5058875;28;20037;-76
2022/11/21 11:08:04;;;;;;;20.55;6.10;;;8.50;99.90;;;;;;5052151;28;20125;-76
2022/11/21 11:10:32;;;;;;;20.73;5.85;;;8.70;99.90;;;;;;5052501;28;20028;-75
2022/11/21 11:16:16;;;;;;;18.45;6.82;;;8.90;99.90;;;;;;5052051;28;20539;-76
2022/11/21 11:19:09;;;;;;;22.65;6.05;;;9.00;99.90;;;;;;5042114;28;20053;-75
2022/11/21 11:21:40;;;;;;;23.10;6.53;;;9.00;99.90;;;;;;5036944;28;20025;-75
2022/11/21 11:24:09;;;;;;;15.55;5.25;;;9.00;99.90;;;;;;5051929;28;20033;-75
2022/11/21 11:27:04;;;;;;;15.35;5.15;;;8.90;99.90;;;;;;5050498;28;20136;-76
2022/11/21 11:29:34;;;;;;;13.45;5.38;;;9.10;99.90;;;;;;5051981;28;20032;-76
2022/11/21 11:32:05;;;;;;;15.35;5.55;;;9.20;99.90;;;;;;5047862;28;20354;-76
2022/11/21 11:34:46;;;;;;;24.17;6.13;;;9.30;99.90;;;;;;5030798;28;20029;-75
2022/11/21 11:37:19;;;;;;;13.07;4.77;;;9.60;99.90;;;;;;5041016;28;20501;-75
2022/11/21 11:40:22;;;;;;;21.15;4.47;;;9.60;99.90;;;;;;5050152;28;20065;-75
2022/11/21 11:49:06;;;;;;;20.60;5.45;;;9.40;99.90;;;;;;5041587;28;20029;-76
2022/11/21 11:51:46;;;;;;;20.52;5.80;;;9.40;99.90;;;;;;5051521;28;20033;-76
2022/11/21 11:54:24;;;;;;;21.42;5.30;;;9.50;99.90;;;;;;5051882;28;20037;-75
2022/11/21 11:56:50;;;;;;;17.02;5.25;;;9.30;99.90;;;;;;5050318;28;20108;-75
2022/11/21 11:59:25;;;;;;;13.38;4.78;;;9.20;99.90;;;;;;5051634;28;20183;-77
2022/11/21 12:02:06;;;;;;;11.70;4.78;;;9.10;99.90;;;;;;5052410;28;20162;-75
2022/11/21 12:04:42;;;;;;;22.33;4.82;;;8.90;99.90;;;;;;5055454;28;20021;-77
2022/11/21 12:07:21;;;;;;;19.58;5.38;;;9.00;99.90;;;;;;5053597;28;20250;-76
2022/11/21 12:09:56;;;;;;;15.25;5.15;;;9.20;99.90;;;;;;5042181;28;20024;-76
2022/11/21 12:12:24;;;;;;;13.73;4.72;;;9.10;99.90;;;;;;5055099;28;20036;-76
2022/11/21 12:18:01;;;;;;;16.15;5.75;;;9.00;99.90;;;;;;5053556;28;20037;-76
2022/11/21 12:20:41;;;;;;;16.80;6.03;;;8.90;99.90;;;;;;5052392;28;20123;-76
2022/11/21 12:23:10;;;;;;;22.67;7.57;;;8.80;99.90;;;;;;5053682;28;20025;-76
2022/11/21 12:25:42;;;;;;;21.95;7.18;;;8.70;99.90;;;;;;5053617;28;20393;-76
2022/11/21 12:28:24;;;;;;;15.45;7.35;;;8.70;99.90;;;;;;5054708;28;20029;-76
2022/11/21 12:31:31;;;;;;;16.30;6.75;;;8.60;99.90;;;;;;5054797;28;20021;-76
2022/11/21 12:34:32;;;;;;;19.02;6.97;;;8.50;99.90;;;;;;5054771;28;20033;-76
2022/11/21 12:37:26;;;;;;;25.38;7.47;;;8.50;99.90;;;;;;5053662;28;20516;-76
2022/11/21 12:40:12;;;;;;;21.45;8.30;;;8.60;99.90;;;;;;5054382;28;20132;-76
2022/11/21 12:42:55;;;;;;;16.42;6.75;;;8.50;99.90;;;;;;5053863;28;20389;-75
2022/11/21 12:45:36;;;;;;;16.08;7.43;;;8.40;99.90;;;;;;5054448;28;20024;-76
2022/11/21 12:54:44;;;;;;;20.27;7.80;;;8.40;99.90;;;;;;5043023;28;20037;-76
2022/11/21 12:57:11;;;;;;;26.98;7.68;;;8.50;99.90;;;;;;5053962;28;20025;-75
2022/11/21 12:59:42;;;;;;;16.35;7.63;;;8.50;99.90;;;;;;5054456;28;20428;-76
2022/11/21 13:02:27;;;;;;;25.73;7.93;;;8.40;99.90;;;;;;5054481;28;20106;-76
2022/11/21 13:04:56;;;;;;;24.40;8.63;;;8.50;99.90;;;;;;5054221;28;20079;-76
2022/11/21 13:07:24;;;;;;;16.52;6.88;;;8.70;99.90;;;;;;5053934;28;20087;-76
2022/11/21 13:09:52;;;;;;;19.25;7.80;;;8.60;99.90;;;;;;5053790;28;20484;-76
2022/11/21 13:12:37;;;;;;;20.48;7.95;;;8.60;99.90;;;;;;5054140;28;20144;-76
2022/11/21 13:15:08;;;;;;;18.40;7.85;;;8.50;99.90;;;;;;5037866;28;20497;-76
2022/11/21 13:17:49;;;;;;;16.52;6.93;;;8.60;99.90;;;;;;5047957;28;20040;-76
2022/11/21 13:20:22;;;;;;;30.08;8.25;;;8.60;99.90;;;;;;5053886;28;20044;-76
2022/11/21 13:22:59;;;;;;;24.35;7.68;;;8.70;99.90;;;;;;5053558;28;20469;-76
2022/11/21 13:25:31;;;;;;;21.88;8.30;;;8.80;99.90;;;;;;5053856;28;20466;-76
2022/11/21 13:28:18;;;;;;;22.60;9.60;;;8.80;99.90;;;;;;5052569;28;20061;-76
2022/11/21 13:30:58;;;;;;;26.13;7.60;;;8.90;99.90;;;;;;5052128;28;20033;-76
2022/11/21 13:33:33;;;;;;;17.73;8.10;;;8.80;99.90;;;;;;5052224;28;20021;-76
2022/11/21 13:36:06;;;;;;;28.73;8.38;;;8.70;99.90;;;;;;5053261;28;20128;-76